createdAt,value
2022-12-08T00:01:32.446Z,92.02
2022-12-08T00:04:01.289Z,92.03
2022-12-08T00:06:50.203Z,92.19
2022-12-08T00:09:23.132Z,92.15
2022-12-08T00:11:53.356Z,92.14
2022-12-08T00:14:23.548Z,92.15
2022-12-08T00:16:51.547Z,92.16
2022-12-08T00:19:19.649Z,91.85
2022-12-08T00:21:48.944Z,92.18
2022-12-08T00:24:17.745Z,92.01
2022-12-08T00:26:45.880Z,92.01
2022-12-08T00:29:17.497Z,92.07
2022-12-08T00:31:45.814Z,92.28
2022-12-08T00:34:14.040Z,92.04
2022-12-08T00:36:42.153Z,92.04
2022-12-08T00:39:12.125Z,92.18
2022-12-08T00:41:57.669Z,92.13
2022-12-08T00:44:25.837Z,92.21
2022-12-08T00:46:53.674Z,92.03
2022-12-08T00:49:21.934Z,92.15
2022-12-08T00:51:50.163Z,91.90
2022-12-08T00:54:20.231Z,92.12
2022-12-08T00:56:48.196Z,92.21
2022-12-08T00:59:16.352Z,92.07
2022-12-08T01:01:45.986Z,91.91
2022-12-08T01:04:16.238Z,92.20
2022-12-08T01:06:45.360Z,91.97
2022-12-08T01:09:14.589Z,92.22
2022-12-08T01:11:44.611Z,92.26
2022-12-08T01:14:13.253Z,92.29
2022-12-08T01:16:42.200Z,92.20
2022-12-08T01:19:11.835Z,92.40
2022-12-08T01:21:40.445Z,92.25
2022-12-08T01:24:11.525Z,92.22
2022-12-08T01:26:39.711Z,92.35
2022-12-08T01:29:09.258Z,92.31
2022-12-08T01:31:37.300Z,92.17
2022-12-08T01:34:05.304Z,92.09
2022-12-08T01:36:37.097Z,92.32
2022-12-08T01:39:07.216Z,92.39
2022-12-08T01:41:37.605Z,92.42
2022-12-08T01:44:43.982Z,92.52
2022-12-08T01:47:13.531Z,92.35
2022-12-08T01:49:41.321Z,92.41
2022-12-08T01:52:17.843Z,92.41
2022-12-08T01:54:49.883Z,92.44
2022-12-08T01:57:21.512Z,92.32
2022-12-08T01:59:53.100Z,92.40
2022-12-08T02:02:22.787Z,92.35
2022-12-08T02:04:50.827Z,92.35
2022-12-08T02:07:19.692Z,92.25
2022-12-08T02:09:47.912Z,92.48
2022-12-08T02:12:16.092Z,92.56
2022-12-08T02:14:44.244Z,92.41
2022-12-08T02:17:30.540Z,92.33
2022-12-08T02:20:35.561Z,92.42
2022-12-08T02:23:12.467Z,92.29
2022-12-08T02:25:52.161Z,92.01
2022-12-08T02:28:43.690Z,92.41
2022-12-08T02:31:28.114Z,92.26
2022-12-08T02:34:18.680Z,92.53
2022-12-08T02:36:55.387Z,92.16
2022-12-08T02:39:32.313Z,92.42
2022-12-08T02:42:09.588Z,92.25
2022-12-08T02:44:43.145Z,92.28
2022-12-08T02:47:14.010Z,92.47
2022-12-08T02:49:43.389Z,92.34
2022-12-08T02:52:40.235Z,92.32
2022-12-08T02:55:14.581Z,92.13
2022-12-08T02:57:52.970Z,92.04
2022-12-08T03:00:23.479Z,92.29
2022-12-08T03:03:04.879Z,92.34
2022-12-08T03:05:52.328Z,92.29
2022-12-08T03:08:25.790Z,92.26
2022-12-08T03:11:01.968Z,92.18
2022-12-08T03:13:35.096Z,92.03
2022-12-08T03:16:08.645Z,91.98
2022-12-08T03:18:43.053Z,91.94
2022-12-08T03:21:17.596Z,92.11
2022-12-08T03:23:47.616Z,92.04
2022-12-08T03:26:21.817Z,92.02
2022-12-08T03:28:49.829Z,92.10
2022-12-08T03:31:19.630Z,92.18
2022-12-08T03:33:53.305Z,92.17
2022-12-08T03:36:23.632Z,92.19
2022-12-08T03:38:53.846Z,91.94
2022-12-08T03:41:23.237Z,91.91
2022-12-08T03:43:52.926Z,92.06
2022-12-08T03:48:49.447Z,92.18
2022-12-08T03:51:17.551Z,92.18
2022-12-08T03:53:47.303Z,92.28
2022-12-08T03:56:20.972Z,92.39
2022-12-08T03:58:48.764Z,92.27
2022-12-08T04:01:16.673Z,92.13
2022-12-08T04:03:44.709Z,92.20
2022-12-08T04:06:12.660Z,92.22
2022-12-08T04:08:41.195Z,92.09
2022-12-08T04:11:10.693Z,92.55
2022-12-08T04:13:39.984Z,92.29
2022-12-08T04:16:08.330Z,92.18
2022-12-08T04:18:37.007Z,91.92
2022-12-08T04:21:05.009Z,92.09
2022-12-08T04:23:32.899Z,92.30
2022-12-08T04:26:00.871Z,92.25
2022-12-08T04:28:30.496Z,92.06
2022-12-08T04:30:58.653Z,91.95
2022-12-08T04:33:26.724Z,92.20
2022-12-08T04:35:54.545Z,92.15
2022-12-08T04:38:22.795Z,92.26
2022-12-08T04:40:50.770Z,92.10
2022-12-08T04:43:18.729Z,91.95
2022-12-08T04:45:48.369Z,92.19
2022-12-08T04:48:16.695Z,92.07
2022-12-08T04:50:46.002Z,92.35
2022-12-08T04:53:14.675Z,91.99
2022-12-08T04:55:44.973Z,91.99
2022-12-08T04:58:14.807Z,91.97
2022-12-08T05:00:43.540Z,91.78
2022-12-08T05:03:13.110Z,92.04
2022-12-08T05:05:41.978Z,92.04
2022-12-08T05:08:10.551Z,92.04
2022-12-08T05:10:38.875Z,91.99
2022-12-08T05:13:06.673Z,91.79
2022-12-08T05:15:34.616Z,91.90
2022-12-08T05:18:02.542Z,91.89
2022-12-08T05:20:31.729Z,91.84
2022-12-08T05:22:59.688Z,91.54
2022-12-08T05:25:27.802Z,91.57
2022-12-08T05:28:17.714Z,91.77
2022-12-08T05:30:43.629Z,91.79
2022-12-08T05:33:11.419Z,91.75
2022-12-08T05:35:40.828Z,91.53
2022-12-08T05:38:08.916Z,91.64
2022-12-08T05:40:38.633Z,91.61
2022-12-08T05:43:06.716Z,91.75
2022-12-08T05:45:35.042Z,91.58
2022-12-08T05:48:03.017Z,91.43
2022-12-08T05:50:30.903Z,91.50
2022-12-08T05:53:00.306Z,91.20
2022-12-08T05:55:28.155Z,91.54
2022-12-08T05:57:55.958Z,91.38
2022-12-08T06:00:24.105Z,91.74
2022-12-08T06:02:52.029Z,91.56
2022-12-08T06:05:20.154Z,91.26
2022-12-08T06:07:48.265Z,91.44
2022-12-08T06:10:17.507Z,91.56
2022-12-08T06:12:45.375Z,91.63
2022-12-08T06:15:13.400Z,91.45
2022-12-08T06:17:41.206Z,91.46
2022-12-08T06:20:09.903Z,91.39
2022-12-08T06:22:38.459Z,91.37
2022-12-08T06:25:10.094Z,91.81
2022-12-08T06:27:40.035Z,91.63
2022-12-08T06:30:09.114Z,91.75
2022-12-08T06:32:37.517Z,91.55
2022-12-08T06:35:06.289Z,91.65
2022-12-08T06:37:34.136Z,91.68
2022-12-08T06:40:02.248Z,91.53
2022-12-08T06:42:46.769Z,91.91
2022-12-08T06:45:18.102Z,91.76
2022-12-08T06:47:46.481Z,91.84
2022-12-08T06:50:15.338Z,91.82
2022-12-08T06:52:54.344Z,91.72
2022-12-08T06:55:59.462Z,91.85
2022-12-08T06:58:17.018Z,91.80
2022-12-08T07:00:46.797Z,92.13
2022-12-08T07:03:14.866Z,91.80
2022-12-08T07:05:42.714Z,91.63
2022-12-08T07:08:13.626Z,91.72
2022-12-08T07:10:41.952Z,91.80
2022-12-08T07:13:09.797Z,91.65
2022-12-08T07:15:38.022Z,92.04
2022-12-08T07:18:07.271Z,91.91
2022-12-08T07:20:35.107Z,91.89
2022-12-08T07:23:03.234Z,91.79
2022-12-08T07:25:31.072Z,91.98
2022-12-08T07:27:58.994Z,91.68
2022-12-08T07:30:27.087Z,91.78
2022-12-08T07:32:57.288Z,91.75
2022-12-08T07:35:26.764Z,91.95
2022-12-08T07:37:54.745Z,92.19
2022-12-08T07:40:22.585Z,91.90
2022-12-08T07:42:50.375Z,92.00
2022-12-08T07:45:18.681Z,92.05
2022-12-08T07:47:48.035Z,91.98
2022-12-08T07:50:15.975Z,92.08
2022-12-08T07:52:45.431Z,92.11
2022-12-08T07:55:13.228Z,92.07
2022-12-08T07:57:41.032Z,92.11
2022-12-08T08:00:10.122Z,92.21
2022-12-08T08:02:38.114Z,92.24
2022-12-08T08:05:07.140Z,92.16
2022-12-08T08:07:37.007Z,92.15
2022-12-08T08:10:08.239Z,91.96
2022-12-08T08:12:36.707Z,92.07
2022-12-08T08:15:07.568Z,92.26
2022-12-08T08:17:36.696Z,92.24
2022-12-08T08:20:07.220Z,92.33
2022-12-08T08:22:36.333Z,92.58
2022-12-08T08:25:04.572Z,92.38
2022-12-08T08:27:33.932Z,92.59
2022-12-08T08:30:02.625Z,92.80
2022-12-08T08:32:35.604Z,92.46
2022-12-08T08:35:03.776Z,92.59
2022-12-08T08:37:31.903Z,92.66
2022-12-08T08:39:59.882Z,92.86
2022-12-08T08:42:27.856Z,92.84
2022-12-08T08:44:57.100Z,92.92
2022-12-08T08:47:25.063Z,92.82
2022-12-08T08:49:53.296Z,92.97
2022-12-08T08:52:21.186Z,92.83
2022-12-08T08:54:49.013Z,93.04
2022-12-08T08:57:23.670Z,93.03
2022-12-08T08:59:53.408Z,93.08
2022-12-08T09:02:23.348Z,93.15
2022-12-08T09:04:51.841Z,93.50
2022-12-08T09:07:19.831Z,93.97
2022-12-08T09:09:47.784Z,94.47
2022-12-08T09:12:15.626Z,94.74
2022-12-08T09:14:43.572Z,95.38
2022-12-08T09:17:11.514Z,95.43
2022-12-08T09:19:40.715Z,95.87
2022-12-08T09:22:11.294Z,96.25
2022-12-08T09:24:39.233Z,96.63
2022-12-08T09:27:07.040Z,96.81
2022-12-08T09:29:36.341Z,97.08
2022-12-08T09:32:04.736Z,97.65
2022-12-08T09:34:32.717Z,98.09
2022-12-08T09:37:02.104Z,97.85
2022-12-08T09:39:29.995Z,98.83
2022-12-08T09:42:00.806Z,99.07
2022-12-08T09:44:57.481Z,99.21
2022-12-08T09:47:35.287Z,98.73
2022-12-08T09:50:08.883Z,97.09
2022-12-08T09:52:42.625Z,96.30
2022-12-08T09:55:18.588Z,95.42
2022-12-08T09:58:01.841Z,95.24
2022-12-08T10:00:30.116Z,95.13
2022-12-08T10:02:58.121Z,95.43
2022-12-08T10:05:28.573Z,95.28
2022-12-08T10:08:09.617Z,95.56
2022-12-08T10:10:42.932Z,94.33
2022-12-08T10:13:20.515Z,93.30
2022-12-08T10:15:54.545Z,92.96
2022-12-08T10:18:28.314Z,92.34
2022-12-08T10:21:01.192Z,91.94
2022-12-08T10:23:36.027Z,91.72
2022-12-08T10:26:06.646Z,91.41
2022-12-08T10:28:39.957Z,91.22
2022-12-08T10:31:17.436Z,91.17
2022-12-08T10:33:47.491Z,91.24
2022-12-08T10:36:15.600Z,91.24
2022-12-08T10:38:44.855Z,91.18
2022-12-08T10:41:18.089Z,91.00
2022-12-08T10:43:49.538Z,91.09
2022-12-08T10:46:19.982Z,90.85
2022-12-08T10:48:54.125Z,90.87
2022-12-08T10:51:29.634Z,90.85
2022-12-08T10:53:59.447Z,90.85
2022-12-08T10:56:29.463Z,90.38
2022-12-08T10:59:14.185Z,90.75
2022-12-08T11:01:43.977Z,90.91
2022-12-08T11:04:16.863Z,90.80
2022-12-08T11:06:45.775Z,90.77
2022-12-08T11:09:46.877Z,91.08
2022-12-08T11:12:16.062Z,91.05
2022-12-08T11:14:56.166Z,91.07
2022-12-08T11:17:27.700Z,91.21
2022-12-08T11:20:00.465Z,91.00
2022-12-08T11:22:32.202Z,91.17
2022-12-08T11:25:04.123Z,91.16
2022-12-08T11:27:34.710Z,91.12
2022-12-08T11:30:04.665Z,91.28
2022-12-08T11:32:35.801Z,91.49
2022-12-08T11:35:06.955Z,91.34
2022-12-08T11:37:40.192Z,91.60
2022-12-08T11:40:17.649Z,91.76
2022-12-08T11:42:55.976Z,92.12
2022-12-08T11:45:28.429Z,92.45
2022-12-08T11:48:05.091Z,92.54
2022-12-08T11:50:42.288Z,92.61
2022-12-08T11:53:18.095Z,92.84
2022-12-08T11:55:53.732Z,92.59
2022-12-08T11:58:28.443Z,93.15
2022-12-08T12:00:56.628Z,93.19
2022-12-08T12:03:30.572Z,93.50
2022-12-08T12:09:17.682Z,94.10
2022-12-08T12:12:16.034Z,93.74
2022-12-08T12:15:20.309Z,94.09
2022-12-08T12:17:52.260Z,94.82
